CST,Max TemperatureF,Mean TemperatureF,Min TemperatureF,Max Dew PointF,MeanDew PointF,Min DewpointF,Max Humidity, Mean Humidity, Min Humidity, Max Sea Level PressureIn, Mean Sea Level PressureIn, Min Sea Level PressureIn, Max VisibilityMiles, Mean VisibilityMiles, Min VisibilityMiles, Max Wind SpeedMPH, Mean Wind SpeedMPH, Max Gust SpeedMPH,PrecipitationIn, CloudCover, Events, WindDirDegrees
2013-2-1,45,31,17,33,22,14,92,70,49,30.38,30.21,30.07,10,10,10,22,10,32,0.00,3,,232
2013-2-2,56,43,29,33,26,22,89,60,28,30.32,30.26,30.19,10,10,10,20,10,26,0.00,0,,294
2013-2-3,54,38,21,27,24,19,85,61,32,30.31,30.09,29.85,10,10,10,15,6,23,0.00,0,,233
2013-2-4,55,42,28,27,25,23,78,55,31,30.02,29.93,29.84,10,10,10,18,7,,0.00,0,,240
2013-2-5,60,45,29,29,25,21,76,51,28,30.06,30.00,29.90,10,10,10,14,8,,0.00,0,,352
2013-2-6,64,47,29,40,33,24,89,69,35,30.00,29.88,29.74,10,10,9,17,7,24,0.00,0,,191
2013-2-7,57,41,24,38,26,20,82,57,28,30.23,30.10,29.91,10,10,10,24,14,32,0.00,2,,353
2013-2-8,56,38,20,30,24,19,92,62,29,30.27,30.14,29.96,10,10,9,23,8,37,0.00,0,,154
2013-2-9,57,45,32,41,34,25,100,73,50,29.94,29.68,29.41,10,8,3,26,15,39,0.05,4,Rain-Thunderstorm,161
2013-2-10,45,35,24,43,26,19,93,71,47,30.12,29.60,29.31,10,10,10,34,22,48,T,5,Rain,288
2013-2-11,40,30,19,21,15,12,81,62,33,30.27,30.20,30.13,10,10,10,10,6,,0.00,1,,305
2013-2-12,50,34,18,21,14,5,81,54,17,30.18,30.10,30.01,10,10,10,15,5,21,0.00,1,,290
2013-2-13,57,40,23,24,19,16,75,49,24,30.03,29.96,29.87,10,10,10,18,9,28,0.00,1,,287
2013-2-14,46,31,16,30,24,13,85,66,42,30.40,30.17,29.99,10,10,10,21,9,29,0.00,3,,309
2013-2-15,41,26,11,21,12,8,88,65,32,30.47,30.43,30.37,10,10,10,18,6,28,0.00,3,,301
2013-2-16,63,37,10,25,19,7,84,54,24,30.42,30.15,29.98,10,10,10,20,8,30,0.00,3,,281
2013-2-17,69,46,23,27,19,14,84,44,14,29.97,29.74,29.47,10,10,10,25,5,31,0.00,0,,217
2013-2-18,50,34,18,29,19,11,74,48,26,30.20,29.89,29.44,10,10,10,30,20,45,0.00,1,,340
2013-2-19,42,27,11,16,13,6,92,60,35,30.38,30.27,30.21,10,10,10,15,8,,0.00,0,,60
2013-2-20,24,21,18,22,18,2,100,86,44,30.22,30.04,29.93,10,2,0,21,15,29,0.38,7,Fog-Snow,100
2013-2-21,21,18,14,19,16,11,93,89,79,30.03,29.90,29.81,10,2,0,22,17,28,0.10,8,Fog-Snow,40
2013-2-22,26,16,5,16,9,2,92,82,69,30.16,30.11,29.93,10,10,6,13,9,,0.00,0,,293
2013-2-23,37,21,4,29,19,2,96,85,70,30.09,29.94,29.85,10,7,2,14,6,,0.00,0,,242
2013-2-24,34,25,16,29,22,12,100,85,74,30.09,29.90,29.80,8,3,0,20,5,22,T,7,Fog,38
2013-2-25,36,30,23,31,27,20,93,86,70,30.10,30.02,29.96,10,8,4,23,18,29,T,5,Snow,8
2013-2-26,34,24,14,23,19,12,92,79,61,30.04,29.95,29.88,10,10,10,12,6,,0.00,0,,327
2013-2-27,36,29,21,28,24,17,85,77,67,30.27,30.18,30.04,10,10,10,22,10,29,0.00,4,,321
2013-2-28,39,30,20,26,22,18,96,77,62,30.32,30.29,30.25,10,10,8,16,8,36,0.00,1,,331